Time;durP1;ratioP1;P1;durP2;ratioP2;P2;SDS_P1;SDS_P2;PMS_P1;PMS_P2;Temp;Humidity;BMP_temperature;BMP_pressure;BME280_temperature;BME280_humidity;BME280_pressure;Samples;Min_cycle;Max_cycle;Signal;HPM_P1;HPM_P2
2022/11/16 00:01:02;;;;;;;;;;;16.70;96.20;;;;;;5073333;28;20158;-89
2022/11/16 00:03:28;;;;;;;;;;;16.70;96.20;;;;;;5073120;28;20320;-89
2022/11/16 00:05:58;;;;;;;;;;;16.70;96.20;;;;;;5072879;28;19916;-89
2022/11/16 00:08:23;;;;;;;;;;;16.70;96.20;;;;;;5073153;28;20278;-89
2022/11/16 00:10:49;;;;;;;;;;;16.70;96.20;;;;;;5071231;28;19959;-89
2022/11/16 00:13:18;;;;;;;;;;;16.70;96.20;;;;;;5072221;28;19948;-89
2022/11/16 00:15:52;;;;;;;;;;;16.70;96.20;;;;;;5071676;28;20285;-89
2022/11/16 00:18:17;;;;;;;;;;;16.70;96.30;;;;;;5072932;28;19908;-89
2022/11/16 00:20:44;;;;;;;;;;;16.70;96.30;;;;;;5071900;28;19915;-90
2022/11/16 00:23:10;;;;;;;;;;;16.70;96.30;;;;;;5071441;28;19962;-89
2022/11/16 00:25:36;;;;;;;;;;;16.70;96.30;;;;;;5071025;28;19909;-89
2022/11/16 00:28:01;;;;;;;;;;;16.70;96.30;;;;;;5072101;28;19913;-89
2022/11/16 00:30:29;;;;;;;;;;;16.70;96.30;;;;;;5055790;28;19908;-89
2022/11/16 00:32:58;;;;;;;;;;;16.70;96.30;;;;;;5055520;28;19909;-89
2022/11/16 00:35:24;;;;;;;;;;;16.70;96.30;;;;;;5038910;28;19912;-89
2022/11/16 00:37:50;;;;;;;;;;;16.70;96.30;;;;;;5072209;28;20015;-90
2022/11/16 00:40:21;;;;;;;;;;;16.70;96.30;;;;;;5071717;28;19909;-90
2022/11/16 00:42:50;;;;;;;;;;;16.70;96.30;;;;;;5071763;28;20185;-90
2022/11/16 00:45:16;;;;;;;;;;;16.60;96.30;;;;;;5072582;28;19909;-90
2022/11/16 00:47:41;;;;;;;;;;;16.70;96.30;;;;;;5072837;28;20004;-90
2022/11/16 00:50:07;;;;;;;;;;;16.70;96.30;;;;;;5072160;28;20255;-90
2022/11/16 00:52:33;;;;;;;;;;;16.70;96.30;;;;;;5072531;28;19909;-90
2022/11/16 00:55:01;;;;;;;;;;;16.60;96.40;;;;;;5072665;28;19909;-91
2022/11/16 00:57:27;;;;;;;;;;;16.70;96.40;;;;;;5072815;28;19908;-91
2022/11/16 00:59:52;;;;;;;;;;;16.60;96.40;;;;;;5072639;28;20254;-91
2022/11/16 01:02:24;;;;;;;;;;;16.70;96.40;;;;;;5072671;28;19909;-91
2022/11/16 01:04:49;;;;;;;;;;;16.70;96.40;;;;;;5072421;28;20038;-91
2022/11/16 01:07:15;;;;;;;;;;;16.70;96.40;;;;;;5072740;28;19920;-90
2022/11/16 01:09:40;;;;;;;;;;;16.60;96.40;;;;;;5072981;28;19917;-91
2022/11/16 01:12:09;;;;;;;;;;;16.60;96.40;;;;;;5039300;28;19919;-90
2022/11/16 01:14:42;;;;;;;;;;;16.60;96.40;;;;;;5072066;28;19916;-91
2022/11/16 01:17:08;;;;;;;;;;;16.70;96.50;;;;;;5071459;28;19912;-91
2022/11/16 01:19:36;;;;;;;;;;;16.60;96.50;;;;;;5071843;28;19909;-91
2022/11/16 01:22:02;;;;;;;;;;;16.60;96.50;;;;;;5070933;28;19944;-91
2022/11/16 01:24:34;;;;;;;;;;;16.60;96.50;;;;;;5071010;28;19987;-90
2022/11/16 01:26:59;;;;;;;;;;;16.60;96.50;;;;;;5072520;28;19909;-91
2022/11/16 01:29:28;;;;;;;;;;;16.60;96.50;;;;;;5072147;28;19915;-91
2022/11/16 01:31:55;;;;;;;;;;;16.60;96.60;;;;;;5072634;28;19923;-91
2022/11/16 01:34:20;;;;;;;;;;;16.60;96.60;;;;;;5071749;28;19970;-91
2022/11/16 01:36:46;;;;;;;;;;;16.60;96.60;;;;;;5073698;28;19994;-91
2022/11/16 01:39:13;;;;;;;;;;;16.60;96.60;;;;;;5075593;28;20194;-91
2022/11/16 01:41:39;;;;;;;;;;;16.60;96.60;;;;;;5076447;28;19928;-91
2022/11/16 01:44:30;;;;;;;;;;;16.60;96.60;;;;;;5076624;28;19917;-91
2022/11/16 01:46:55;;;;;;;;;;;16.60;96.60;;;;;;5074892;28;19923;-91
2022/11/16 01:49:22;;;;;;;;;;;16.60;96.70;;;;;;5075631;28;20052;-91
2022/11/16 01:51:50;;;;;;;;;;;16.60;96.70;;;;;;5076723;28;19917;-91
2022/11/16 01:54:19;;;;;;;;;;;16.60;96.70;;;;;;5074999;28;19919;-91
2022/11/16 01:56:49;;;;;;;;;;;16.60;96.70;;;;;;5072253;28;19912;-91
2022/11/16 01:59:24;;;;;;;;;;;16.60;96.70;;;;;;5073661;28;19917;-92
2022/11/16 02:01:59;;;;;;;;;;;16.60;96.80;;;;;;5040497;28;19947;-91
2022/11/16 02:04:27;;;;;;;;;;;16.60;96.80;;;;;;5073356;28;19925;-91
2022/11/16 02:07:12;;;;;;;;;;;16.60;96.80;;;;;;5072571;28;19909;-92
2022/11/16 02:09:59;;;;;;;;;;;16.60;96.80;;;;;;5040326;28;19909;-92
2022/11/16 02:12:25;;;;;;;;;;;16.60;96.80;;;;;;5043516;28;20058;-92
2022/11/16 02:17:37;;;;;;;;;;;16.60;96.80;;;;;;5226094;22;20319;-93
2022/11/16 02:20:12;;;;;;;;;;;16.60;96.80;;;;;;5067802;28;19921;-93
2022/11/16 02:22:56;;;;;;;;;;;16.60;96.80;;;;;;5071350;28;19912;-93
2022/11/16 02:25:35;;;;;;;;;;;16.60;96.90;;;;;;5072179;28;19910;-94
2022/11/16 02:28:24;;;;;;;;;;;16.60;96.90;;;;;;5065676;28;20182;-92
2022/11/16 02:30:51;;;;;;;;;;;16.60;96.90;;;;;;5062336;28;19912;-93
2022/11/16 02:33:22;;;;;;;;;;;16.60;96.90;;;;;;5059949;28;20277;-93
2022/11/16 02:35:55;;;;;;;;;;;16.60;96.90;;;;;;5061319;28;19912;-92
2022/11/16 02:38:25;;;;;;;;;;;16.50;96.90;;;;;;5060795;28;19918;-93
2022/11/16 02:40:54;;;;;;;;;;;16.60;96.90;;;;;;5061364;28;20232;-92
2022/11/16 02:43:32;;;;;;;;;;;16.60;96.90;;;;;;5061757;28;19919;-92
2022/11/16 02:46:04;;;;;;;;;;;16.60;96.90;;;;;;5060426;28;19909;-92
2022/11/16 02:48:38;;;;;;;;;;;16.60;96.90;;;;;;5060107;28;19995;-92
2022/11/16 02:51:05;;;;;;;;;;;16.50;96.90;;;;;;5060268;28;19908;-92
2022/11/16 02:53:54;;;;;;;;;;;16.60;97.00;;;;;;5059793;28;20002;-91
2022/11/16 02:56:20;;;;;;;;;;;16.60;97.00;;;;;;5041377;28;19974;-90
2022/11/16 02:58:49;;;;;;;;;;;16.60;97.00;;;;;;5056838;28;20076;-91
2022/11/16 03:01:18;;;;;;;;;;;16.50;97.00;;;;;;5055411;28;19912;-89
2022/11/16 03:03:46;;;;;;;;;;;16.60;97.10;;;;;;5058777;28;20005;-90
2022/11/16 03:06:23;;;;;;;;;;;16.60;97.10;;;;;;5058195;28;19916;-90
2022/11/16 03:09:09;;;;;;;;;;;16.50;97.10;;;;;;5057491;28;19908;-91
2022/11/16 03:14:25;;;;;;;;;;;16.50;97.10;;;;;;5076447;28;19989;-91
2022/11/16 03:16:54;;;;;;;;;;;16.50;97.10;;;;;;5058051;28;19912;-91
2022/11/16 03:19:49;;;;;;;;;;;16.50;97.20;;;;;;5057593;28;19976;-92
2022/11/16 03:22:23;;;;;;;;;;;16.50;97.20;;;;;;5073827;28;19991;-90
2022/11/16 03:24:52;;;;;;;;;;;16.50;97.20;;;;;;5057364;28;20177;-90
2022/11/16 03:27:21;;;;;;;;;;;16.50;97.20;;;;;;5058197;28;20383;-90
2022/11/16 03:30:05;;;;;;;;;;;16.50;97.20;;;;;;5060003;28;19951;-92
2022/11/16 03:33:03;;;;;;;;;;;16.50;97.30;;;;;;5077443;28;19922;-91
2022/11/16 03:35:32;;;;;;;;;;;16.50;97.30;;;;;;5037701;28;19913;-91
2022/11/16 03:38:02;;;;;;;;;;;16.50;97.30;;;;;;5060037;28;19989;-91
2022/11/16 03:40:29;;;;;;;;;;;16.50;97.30;;;;;;5059136;28;19908;-91
2022/11/16 03:42:59;;;;;;;;;;;16.50;97.30;;;;;;5075782;28;20058;-91
2022/11/16 03:45:28;;;;;;;;;;;16.50;97.30;;;;;;5059124;28;20197;-91
2022/11/16 03:47:53;;;;;;;;;;;16.50;97.30;;;;;;5059122;28;19909;-92
2022/11/16 03:50:19;;;;;;;;;;;16.50;97.40;;;;;;5058730;28;19961;-92
2022/11/16 03:52:45;;;;;;;;;;;16.50;97.40;;;;;;5058384;28;20009;-92
2022/11/16 03:55:10;;;;;;;;;;;16.50;97.40;;;;;;5059070;28;19908;-93
2022/11/16 03:57:36;;;;;;;;;;;16.50;97.40;;;;;;5058701;28;20282;-92
2022/11/16 04:00:02;;;;;;;;;;;16.50;97.40;;;;;;5058288;28;20072;-92
2022/11/16 04:02:28;;;;;;;;;;;16.50;97.40;;;;;;5059363;28;20209;-92
2022/11/16 04:24:17;;;;;;;;;;;16.50;97.50;;;;;;5076991;28;19919;-92
2022/11/16 04:29:29;;;;;;;;;;;16.50;97.60;;;;;;5075284;28;19920;-91
2022/11/16 04:40:08;;;;;;;;;;;16.50;97.60;;;;;;5073344;28;20158;-91
2022/11/16 04:42:33;;;;;;;;;;;16.50;97.60;;;;;;5056517;28;19908;-91
2022/11/16 04:47:43;;;;;;;;;;;16.60;97.50;;;;;;5073622;28;19916;-91
2022/11/16 04:50:13;;;;;;;;;;;16.60;97.40;;;;;;5056615;28;20633;-92
2022/11/16 04:52:42;;;;;;;;;;;16.60;97.40;;;;;;5056441;28;19916;-92
2022/11/16 04:55:11;;;;;;;;;;;16.60;97.30;;;;;;5056373;28;19908;-92
2022/11/16 04:57:40;;;;;;;;;;;16.70;97.20;;;;;;5056059;28;20002;-92
2022/11/16 05:00:09;;;;;;;;;;;16.70;97.20;;;;;;5054777;28;19908;-91
2022/11/16 05:02:34;;;;;;;;;;;16.70;97.10;;;;;;5054174;28;19916;-92
2022/11/16 05:05:03;;;;;;;;;;;16.70;97.00;;;;;;5053218;28;19913;-91
2022/11/16 05:07:31;;;;;;;;;;;16.70;97.00;;;;;;5055191;28;20124;-92
2022/11/16 05:09:57;;;;;;;;;;;16.80;97.00;;;;;;5055703;28;20299;-92
2022/11/16 05:12:26;;;;;;;;;;;16.80;97.00;;;;;;5055366;28;19916;-91
2022/11/16 05:14:56;;;;;;;;;;;16.80;97.10;;;;;;5053987;28;20204;-92
2022/11/16 05:17:22;;;;;;;;;;;16.70;97.00;;;;;;5055383;28;20022;-92
2022/11/16 05:22:35;;;;;;;;;;;16.70;97.00;;;;;;5074406;28;19919;-91
2022/11/16 05:25:02;;;;;;;;;;;16.70;97.00;;;;;;5055366;28;20284;-92
2022/11/16 05:27:28;;;;;;;;;;;16.70;97.00;;;;;;5054095;28;19909;-91
2022/11/16 05:29:57;;;;;;;;;;;16.70;97.00;;;;;;5054201;28;19908;-92
2022/11/16 05:32:23;;;;;;;;;;;16.70;97.00;;;;;;5053975;28;19908;-92
2022/11/16 05:34:49;;;;;;;;;;;16.70;97.00;;;;;;5051680;28;20184;-92
2022/11/16 05:37:15;;;;;;;;;;;16.70;97.00;;;;;;5049437;28;19913;-91
2022/11/16 05:39:44;;;;;;;;;;;16.70;97.00;;;;;;5051061;28;19908;-91
2022/11/16 05:45:15;;;;;;;;;;;16.70;97.10;;;;;;5067704;28;20209;-91
2022/11/16 05:47:41;;;;;;;;;;;16.70;97.20;;;;;;5049831;28;19912;-92
2022/11/16 05:50:10;;;;;;;;;;;16.70;97.40;;;;;;5025504;28;19908;-92
2022/11/16 05:52:35;;;;;;;;;;;16.70;97.50;;;;;;5051632;28;20251;-92
2022/11/16 05:55:01;;;;;;;;;;;16.60;97.60;;;;;;5052008;28;19969;-91
2022/11/16 05:57:26;;;;;;;;;;;16.60;97.80;;;;;;5050777;28;19913;-92
2022/11/16 05:59:52;;;;;;;;;;;16.60;98.00;;;;;;5049923;28;20108;-91
2022/11/16 06:02:17;;;;;;;;;;;16.60;98.20;;;;;;5051585;28;20363;-91
2022/11/16 06:04:43;;;;;;;;;;;16.60;98.40;;;;;;5052564;28;19920;-93
2022/11/16 06:07:12;;;;;;;;;;;16.60;99.70;;;;;;5053713;28;19915;-91
2022/11/16 06:09:37;;;;;;;;;;;16.60;99.30;;;;;;5071855;28;20148;-91
2022/11/16 06:12:03;;;;;;;;;;;16.60;99.10;;;;;;5052670;28;19935;-91
2022/11/16 06:14:32;;;;;;;;;;;16.60;99.10;;;;;;5036634;28;19955;-91
2022/11/16 06:17:00;;;;;;;;;;;16.60;99.20;;;;;;5054155;28;19913;-91
2022/11/16 06:19:30;;;;;;;;;;;16.60;99.30;;;;;;5047127;28;19932;-91
2022/11/16 06:21:55;;;;;;;;;;;16.60;99.40;;;;;;5051926;28;19959;-89
2022/11/16 06:24:24;;;;;;;;;;;16.60;99.60;;;;;;5053860;28;19955;-91
2022/11/16 06:26:52;;;;;;;;;;;16.60;99.70;;;;;;5056873;28;20293;-92
2022/11/16 06:29:18;;;;;;;;;;;16.60;99.80;;;;;;5054009;28;19915;-91
2022/11/16 06:31:47;;;;;;;;;;;16.60;99.90;;;;;;5034319;28;20117;-92
2022/11/16 06:34:15;;;;;;;;;;;16.60;99.90;;;;;;5052896;28;20204;-92
2022/11/16 06:36:44;;;;;;;;;;;16.60;99.90;;;;;;5055692;28;20015;-91
2022/11/16 06:39:13;;;;;;;;;;;16.60;99.90;;;;;;5053884;28;20285;-91
2022/11/16 06:41:41;;;;;;;;;;;16.60;99.90;;;;;;5048145;28;19935;-91
2022/11/16 06:44:07;;;;;;;;;;;16.60;99.90;;;;;;5051965;28;20144;-91
2022/11/16 06:46:33;;;;;;;;;;;16.60;99.90;;;;;;5050439;28;20188;-92
2022/11/16 06:49:02;;;;;;;;;;;16.60;99.90;;;;;;5047718;28;20163;-92
2022/11/16 06:51:30;;;;;;;;;;;16.60;99.90;;;;;;5039061;28;19924;-92
2022/11/16 06:53:56;;;;;;;;;;;16.60;99.90;;;;;;5053518;28;20009;-92
2022/11/16 06:56:22;;;;;;;;;;;16.60;99.90;;;;;;5055299;28;19961;-92
2022/11/16 06:58:47;;;;;;;;;;;16.60;99.90;;;;;;5052928;28;19916;-92
2022/11/16 07:01:13;;;;;;;;;;;16.60;99.90;;;;;;5050954;28;19916;-92
2022/11/16 07:03:41;;;;;;;;;;;16.60;99.90;;;;;;5053939;28;19908;-91
2022/11/16 07:06:08;;;;;;;;;;;16.60;99.90;;;;;;5053753;28;20003;-92
2022/11/16 07:08:36;;;;;;;;;;;16.70;99.90;;;;;;5054215;28;19948;-92
2022/11/16 07:11:06;;;;;;;;;;;16.70;99.90;;;;;;5053935;28;19915;-92
2022/11/16 07:13:32;;;;;;;;;;;16.70;99.90;;;;;;5052685;28;20339;-92
2022/11/16 07:16:05;;;;;;;;;;;16.80;99.80;;;;;;5043399;28;20221;-92
2022/11/16 07:18:34;;;;;;;;;;;16.80;99.70;;;;;;5051462;28;19919;-92
2022/11/16 07:21:06;;;;;;;;;;;16.90;99.60;;;;;;5052022;28;20171;-92
2022/11/16 07:23:32;;;;;;;;;;;16.90;99.60;;;;;;5050263;28;20169;-92
2022/11/16 07:26:01;;;;;;;;;;;16.90;99.50;;;;;;5049566;28;19909;-92
2022/11/16 07:28:30;;;;;;;;;;;17.00;99.30;;;;;;5049027;28;19913;-93
2022/11/16 07:31:07;;;;;;;;;;;17.00;99.30;;;;;;5051427;28;19916;-92
2022/11/16 07:36:17;;;;;;;;;;;17.10;99.10;;;;;;5069443;28;20005;-93
2022/11/16 07:38:43;;;;;;;;;;;17.10;99.10;;;;;;5052599;28;20289;-93
2022/11/16 07:41:10;;;;;;;;;;;17.10;99.00;;;;;;5051670;28;19918;-92
2022/11/16 07:43:35;;;;;;;;;;;17.10;99.00;;;;;;5027955;28;20335;-92
2022/11/16 07:46:03;;;;;;;;;;;17.10;99.00;;;;;;5050524;28;19912;-92
2022/11/16 07:48:35;;;;;;;;;;;17.10;99.00;;;;;;5055090;28;20333;-92
2022/11/16 07:51:02;;;;;;;;;;;17.10;98.90;;;;;;5043730;28;19922;-91
2022/11/16 07:53:28;;;;;;;;;;;17.20;98.90;;;;;;5047651;28;19905;-92
2022/11/16 07:55:54;;;;;;;;;;;17.20;98.90;;;;;;5038306;28;20265;-92
2022/11/16 07:58:20;;;;;;;;;;;17.20;98.90;;;;;;5040523;28;20055;-91
2022/11/16 08:00:45;;;;;;;;;;;17.20;98.90;;;;;;5045887;28;20332;-92
2022/11/16 08:03:11;;;;;;;;;;;17.20;98.80;;;;;;5043057;28;19913;-92
2022/11/16 08:05:36;;;;;;;;;;;17.20;98.80;;;;;;5050719;28;19967;-92
2022/11/16 08:08:03;;;;;;;;;;;17.30;98.60;;;;;;5050272;28;19919;-93
2022/11/16 08:10:32;;;;;;;;;;;17.50;98.30;;;;;;5047568;28;19956;-93
2022/11/16 08:12:58;;;;;;;;;;;18.00;97.30;;;;;;5047798;28;20080;-92
2022/11/16 08:15:27;;;;;;;;;;;18.80;95.70;;;;;;5046586;28;19908;-93
2022/11/16 08:17:55;;;;;;;;;;;19.10;94.30;;;;;;5051811;28;19917;-92
2022/11/16 08:20:21;;;;;;;;;;;19.50;93.20;;;;;;5052892;28;19920;-92
2022/11/16 08:22:49;;;;;;;;;;;19.90;91.70;;;;;;5051638;28;19913;-92
2022/11/16 08:25:15;;;;;;;;;;;20.10;90.80;;;;;;5052671;28;19944;-92
2022/11/16 08:27:40;;;;;;;;;;;20.00;90.30;;;;;;5053210;28;19963;-93
2022/11/16 08:30:10;;;;;;;;;;;19.60;91.10;;;;;;5052135;28;19908;-92
2022/11/16 08:32:36;;;;;;;;;;;19.40;91.60;;;;;;5036584;28;19908;-91
2022/11/16 08:35:02;;;;;;;;;;;20.10;90.60;;;;;;5052958;28;19923;-92
2022/11/16 08:37:30;;;;;;;;;;;20.80;86.40;;;;;;5052801;28;20190;-92
2022/11/16 08:39:59;;;;;;;;;;;21.20;82.80;;;;;;5039269;28;19908;-93
2022/11/16 08:42:24;;;;;;;;;;;21.70;80.20;;;;;;5025524;28;19923;-92
2022/11/16 08:44:50;;;;;;;;;;;22.30;75.80;;;;;;5044719;28;19916;-92
2022/11/16 08:47:18;;;;;;;;;;;22.80;72.10;;;;;;5020959;28;19952;-92
2022/11/16 08:49:45;;;;;;;;;;;23.20;69.20;;;;;;5034778;28;19921;-92
2022/11/16 08:52:11;;;;;;;;;;;23.50;66.70;;;;;;5039102;22;20177;-10
2022/11/16 08:54:36;;;;;;;;;;;23.80;64.90;;;;;;5054566;28;20422;-9
2022/11/16 08:57:02;;;;;;;;;;;24.00;63.30;;;;;;5073498;28;20027;-11
2022/11/16 08:59:33;;;;;;;;;;;24.20;62.00;;;;;;5076421;28;20287;-10
2022/11/16 09:01:59;;;;;;;;;;;24.40;60.90;;;;;;5076152;28;19912;-10
2022/11/16 09:04:24;;;;;;;;;;;24.50;59.90;;;;;;5076129;28;19919;-11
2022/11/16 09:06:51;;;;;;;;;;;24.60;59.50;;;;;;5076788;28;19913;-10
2022/11/16 09:09:24;;;;;;;;;;;24.70;59.10;;;;;;5074235;28;19919;-10
2022/11/16 09:11:52;;;;;;;;;;;24.80;58.70;;;;;;5076981;28;19967;-10
2022/11/16 09:14:19;;;;;;;;;;;24.80;58.50;;;;;;5076238;28;20002;-11
2022/11/16 09:16:44;;;;;;;;;;;24.70;58.50;;;;;;5072453;28;19912;-11
2022/11/16 09:19:21;;;;;;;;;;;24.40;58.50;;;;;;5074789;28;19908;-11
2022/11/16 09:21:47;;;;;;;;;;;23.90;58.90;;;;;;5076716;28;20193;-11
2022/11/16 09:24:12;;;;;;;;;;;23.40;59.70;;;;;;5073121;28;20010;-10
2022/11/16 09:26:41;;;;;;;;;;;23.00;61.20;;;;;;5077280;28;20407;-11
2022/11/16 09:29:12;;;;;;;;;;;22.60;63.00;;;;;;5071445;28;19908;-11
2022/11/16 09:31:38;;;;;;;;;;;22.20;64.80;;;;;;5056523;28;19912;-10
2022/11/16 09:34:04;;;;;;;;;;;22.00;66.80;;;;;;5054761;28;20081;-11
2022/11/16 09:36:32;;;;;;;;;;;21.70;68.50;;;;;;5057074;28;20113;-10
2022/11/16 09:38:58;;;;;;;;;;;21.50;70.10;;;;;;5056488;28;20263;-9
2022/11/16 09:41:47;;;;;;;;;;;21.30;71.60;;;;;;5043823;28;20357;-9
2022/11/16 09:44:42;;;;;;;;;;;21.10;73.10;;;;;;5042763;28;20065;-10
2022/11/16 09:47:18;;;;;;;;;;;21.00;74.70;;;;;;5054783;28;19935;-11
2022/11/16 09:49:53;;;;;;;;;;;20.80;75.90;;;;;;5060389;28;20270;-11
2022/11/16 09:52:51;;;;;;;;;;;20.70;76.90;;;;;;5048047;28;20366;-10
2022/11/16 09:55:23;;;;;;;;;;;20.50;78.20;;;;;;5024449;28;20677;-10
2022/11/16 09:57:54;;;;;;;;;;;20.40;79.60;;;;;;5066401;28;19924;-11
2022/11/16 10:00:22;;;;;;;;;;;20.20;80.70;;;;;;5069118;28;19917;-11
2022/11/16 10:03:00;;;;;;;;;;;20.10;81.50;;;;;;5070387;28;19909;-11
2022/11/16 10:05:35;;;;;;;;;;;20.00;82.50;;;;;;5051788;28;20258;-11
2022/11/16 10:08:13;;;;;;;;;;;19.90;83.40;;;;;;5053065;28;19908;-10
2022/11/16 10:10:44;;;;;;;;;;;19.70;84.40;;;;;;5070700;28;20175;-10
2022/11/16 10:13:19;;;;;;;;;;;19.60;85.60;;;;;;5053559;28;20269;-11
2022/11/16 10:15:44;;;;;;;;;;;19.40;86.90;;;;;;5051448;28;20170;-11
2022/11/16 10:18:16;;;;;;;;;;;19.30;87.90;;;;;;5070599;28;19909;-10
2022/11/16 10:20:47;;;;;;;;;;;19.30;88.80;;;;;;5054379;28;19919;-11
2022/11/16 10:23:16;;;;;;;;;;;19.20;89.40;;;;;;5072591;28;19919;-9
2022/11/16 10:25:46;;;;;;;;;;;19.20;89.80;;;;;;5073087;28;19982;-10
2022/11/16 10:28:23;;;;;;;;;;;19.30;89.70;;;;;;5071131;28;20311;-11
2022/11/16 10:31:15;;;;;;;;;;;19.30;89.70;;;;;;5070738;28;19908;-10
2022/11/16 10:33:41;;;;;;;;;;;19.20;90.10;;;;;;5052054;28;20136;-9
2022/11/16 10:36:12;;;;;;;;;;;19.20;90.30;;;;;;5068739;28;20041;-10
2022/11/16 10:38:38;;;;;;;;;;;19.20;90.50;;;;;;5070088;28;19920;-11
2022/11/16 10:41:13;;;;;;;;;;;19.10;90.70;;;;;;5070549;28;19915;-11
2022/11/16 10:43:39;;;;;;;;;;;19.10;90.90;;;;;;5068901;28;19908;-11
2022/11/16 10:46:20;;;;;;;;;;;19.00;90.90;;;;;;5067887;28;19973;-11
2022/11/16 10:49:10;;;;;;;;;;;19.00;91.10;;;;;;5069850;28;19909;-11
2022/11/16 10:51:38;;;;;;;;;;;19.00;91.20;;;;;;5052142;28;19914;-10
2022/11/16 10:54:14;;;;;;;;;;;19.00;91.30;;;;;;5068842;28;20094;-11
2022/11/16 10:56:44;;;;;;;;;;;19.00;91.40;;;;;;5067442;28;20023;-11
2022/11/16 10:59:14;;;;;;;;;;;18.90;91.40;;;;;;5068187;28;20227;-11
2022/11/16 11:01:39;;;;;;;;;;;18.90;91.40;;;;;;5051330;28;19908;-12
2022/11/16 11:04:12;;;;;;;;;;;18.90;91.50;;;;;;5052407;28;20117;-10
2022/11/16 11:06:38;;;;;;;;;;;18.80;91.50;;;;;;5069294;28;19919;-10
2022/11/16 11:09:15;;;;;;;;;;;18.80;91.60;;;;;;5052592;28;19908;-10
2022/11/16 11:14:24;;;;;;;;;;;18.80;91.70;;;;;;5070091;28;20229;-11
2022/11/16 11:16:53;;;;;;;;;;;18.80;91.80;;;;;;5070598;28;19912;-10
2022/11/16 11:19:24;;;;;;;;;;;18.80;91.80;;;;;;5052064;28;19908;-11
2022/11/16 11:21:54;;;;;;;;;;;18.70;91.90;;;;;;5071097;28;20335;-11
2022/11/16 11:24:19;;;;;;;;;;;18.80;91.90;;;;;;5050836;28;20140;-11
2022/11/16 11:26:51;;;;;;;;;;;18.70;91.90;;;;;;5066825;28;20307;-11
2022/11/16 11:29:23;;;;;;;;;;;18.70;91.90;;;;;;5066828;28;19955;-11
2022/11/16 11:31:53;;;;;;;;;;;18.70;91.90;;;;;;5047875;28;19909;-11
2022/11/16 11:34:29;;;;;;;;;;;18.80;91.90;;;;;;5068317;28;19916;-10
2022/11/16 11:37:02;;;;;;;;;;;18.70;91.80;;;;;;5064861;28;20113;-11
2022/11/16 11:39:32;;;;;;;;;;;18.80;91.90;;;;;;5067575;28;20159;-11
2022/11/16 11:42:04;;;;;;;;;;;18.70;91.80;;;;;;5067095;28;20100;-10
2022/11/16 11:44:32;;;;;;;;;;;18.70;91.90;;;;;;5067080;28;19909;-11
2022/11/16 11:47:05;;;;;;;;;;;18.70;91.80;;;;;;5068756;28;20014;-11
2022/11/16 11:49:33;;;;;;;;;;;18.80;91.80;;;;;;5067532;28;19916;-10
2022/11/16 11:52:02;;;;;;;;;;;18.70;91.70;;;;;;5069359;28;20288;-9
2022/11/16 11:54:30;;;;;;;;;;;18.70;91.80;;;;;;5067193;28;20213;-12
2022/11/16 11:56:56;;;;;;;;;;;18.80;91.70;;;;;;5069830;28;20513;-11
2022/11/16 11:59:28;;;;;;;;;;;18.80;91.70;;;;;;5048509;28;20273;-10
2022/11/16 12:02:14;;;;;;;;;;;18.70;91.70;;;;;;5067300;28;19948;-9
2022/11/16 12:05:02;;;;;;;;;;;18.80;91.80;;;;;;5050919;28;20002;-11
2022/11/16 12:07:40;;;;;;;;;;;18.70;91.80;;;;;;5065426;28;19919;-10
2022/11/16 12:10:20;;;;;;;;;;;18.70;91.90;;;;;;5067923;28;20278;-11
2022/11/16 12:13:04;;;;;;;;;;;18.70;91.90;;;;;;5067032;28;20227;-10
2022/11/16 12:15:40;;;;;;;;;;;18.70;91.90;;;;;;5046513;28;20068;-12
2022/11/16 12:18:21;;;;;;;;;;;18.70;92.00;;;;;;5076104;28;19918;-11
2022/11/16 12:21:13;;;;;;;;;;;18.60;92.10;;;;;;5058882;28;19908;-9
2022/11/16 12:24:02;;;;;;;;;;;18.60;92.20;;;;;;5046475;28;19919;-11
2022/11/16 12:26:27;;;;;;;;;;;18.60;92.30;;;;;;5046921;28;20018;-12
2022/11/16 12:29:05;;;;;;;;;;;18.60;92.40;;;;;;5046000;28;20014;-11
2022/11/16 12:31:49;;;;;;;;;;;18.50;92.40;;;;;;5047613;28;20019;-10
2022/11/16 12:34:34;;;;;;;;;;;18.50;92.50;;;;;;5065983;28;20270;-9
2022/11/16 12:37:07;;;;;;;;;;;18.50;92.60;;;;;;5047450;28;19923;-12
2022/11/16 12:39:34;;;;;;;;;;;18.50;92.70;;;;;;5065287;28;19947;-10
2022/11/16 12:42:17;;;;;;;;;;;18.50;92.80;;;;;;5047278;28;20504;-10
2022/11/16 12:44:43;;;;;;;;;;;18.50;92.90;;;;;;5046196;28;19974;-10
2022/11/16 12:47:09;;;;;;;;;;;18.50;92.90;;;;;;5044240;28;19916;-12
2022/11/16 12:49:39;;;;;;;;;;;18.40;93.00;;;;;;5069347;28;19969;-10
2022/11/16 12:55:17;;;;;;;;;;;18.40;93.10;;;;;;5069081;28;19969;-12
2022/11/16 12:57:47;;;;;;;;;;;18.40;93.20;;;;;;5067363;28;20179;-9
2022/11/16 13:00:13;;;;;;;;;;;18.40;93.30;;;;;;5067488;28;19919;-11
2022/11/16 13:02:58;;;;;;;;;;;18.40;93.30;;;;;;5047242;28;19908;-10
2022/11/16 13:05:35;;;;;;;;;;;18.30;93.40;;;;;;5066971;28;20106;-10
2022/11/16 13:08:02;;;;;;;;;;;18.30;93.50;;;;;;5049822;28;20409;-10
2022/11/16 13:10:30;;;;;;;;;;;18.30;93.50;;;;;;5049709;28;20269;-11
2022/11/16 13:13:00;;;;;;;;;;;18.30;93.60;;;;;;5047926;28;19915;-11
2022/11/16 13:15:31;;;;;;;;;;;18.30;93.60;;;;;;5067248;28;19920;-10
2022/11/16 13:18:00;;;;;;;;;;;18.30;93.70;;;;;;5049624;28;19912;-10
2022/11/16 13:20:25;;;;;;;;;;;18.20;93.80;;;;;;5067043;28;20322;-10
2022/11/16 13:23:10;;;;;;;;;;;18.20;93.90;;;;;;5063374;28;20265;-11
2022/11/16 13:25:41;;;;;;;;;;;18.20;94.30;;;;;;5064903;28;20113;-11
2022/11/16 13:28:22;;;;;;;;;;;18.20;94.10;;;;;;5065195;28;20380;-9
2022/11/16 13:30:56;;;;;;;;;;;18.20;94.20;;;;;;5067122;28;19909;-11
2022/11/16 13:33:31;;;;;;;;;;;18.20;94.30;;;;;;5065173;28;19951;-10
2022/11/16 13:35:56;;;;;;;;;;;18.20;94.40;;;;;;5064892;28;20007;-10
2022/11/16 13:38:40;;;;;;;;;;;18.10;94.50;;;;;;5065857;28;20257;-10
2022/11/16 13:41:29;;;;;;;;;;;18.10;94.60;;;;;;5049118;28;20220;-10
2022/11/16 13:43:55;;;;;;;;;;;18.10;95.00;;;;;;5067874;28;19976;-10
2022/11/16 13:46:20;;;;;;;;;;;18.10;94.80;;;;;;5048777;28;20176;-10
2022/11/16 13:48:46;;;;;;;;;;;18.10;94.90;;;;;;5065107;28;19909;-10
2022/11/16 13:51:32;;;;;;;;;;;18.10;95.00;;;;;;5066046;28;19908;-9
2022/11/16 13:53:57;;;;;;;;;;;18.10;95.00;;;;;;5046774;28;20007;-10
2022/11/16 13:56:23;;;;;;;;;;;18.10;95.00;;;;;;5066607;28;20445;-10
2022/11/16 13:58:50;;;;;;;;;;;18.10;95.00;;;;;;5065138;28;20300;-12
2022/11/16 14:01:16;;;;;;;;;;;18.10;95.00;;;;;;5065090;28;19909;-10
2022/11/16 14:03:43;;;;;;;;;;;18.10;95.00;;;;;;5048937;28;20151;-11
2022/11/16 14:06:12;;;;;;;;;;;18.10;95.10;;;;;;5066474;28;19920;-11
2022/11/16 14:08:37;;;;;;;;;;;18.10;95.10;;;;;;5048112;28;19951;-11
2022/11/16 14:11:04;;;;;;;;;;;18.10;95.10;;;;;;5066198;28;19936;-9
2022/11/16 14:13:38;;;;;;;;;;;18.10;95.20;;;;;;5067319;28;19925;-9
2022/11/16 14:16:13;;;;;;;;;;;18.10;95.20;;;;;;5049070;28;19917;-9
2022/11/16 14:18:39;;;;;;;;;;;18.10;95.20;;;;;;5048361;28;19909;-10
2022/11/16 14:21:04;;;;;;;;;;;18.10;95.20;;;;;;5048547;28;20303;-10
2022/11/16 14:23:30;;;;;;;;;;;18.10;95.50;;;;;;5046952;28;20014;-10
2022/11/16 14:26:05;;;;;;;;;;;18.00;95.20;;;;;;5045939;28;19908;-12
2022/11/16 14:28:34;;;;;;;;;;;18.00;95.30;;;;;;5045505;28;19916;-12
2022/11/16 14:31:06;;;;;;;;;;;18.00;95.40;;;;;;5046062;28;19908;-12
2022/11/16 14:33:33;;;;;;;;;;;18.00;95.50;;;;;;5046909;28;20147;-10
2022/11/16 14:36:00;;;;;;;;;;;17.90;95.50;;;;;;5056768;28;19924;-9
2022/11/16 14:38:34;;;;;;;;;;;17.90;95.50;;;;;;5064424;28;19919;-10
2022/11/16 14:41:04;;;;;;;;;;;17.90;95.60;;;;;;5052685;28;19908;-10
2022/11/16 14:43:41;;;;;;;;;;;17.90;95.60;;;;;;5066291;28;19919;-10
2022/11/16 14:46:08;;;;;;;;;;;17.90;95.70;;;;;;5056315;28;19913;-10
2022/11/16 14:48:40;;;;;;;;;;;17.90;95.70;;;;;;5067851;28;19916;-11
2022/11/16 14:51:13;;;;;;;;;;;17.90;95.70;;;;;;5053838;28;19942;-10
2022/11/16 14:53:46;;;;;;;;;;;17.80;95.80;;;;;;5051131;28;20228;-11
2022/11/16 14:56:13;;;;;;;;;;;17.80;95.90;;;;;;5055815;28;19921;-11
2022/11/16 14:58:38;;;;;;;;;;;17.80;95.90;;;;;;5074387;28;20290;-10
2022/11/16 15:01:07;;;;;;;;;;;17.80;95.90;;;;;;5056434;28;19982;-11
2022/11/16 15:03:35;;;;;;;;;;;17.80;96.00;;;;;;5041177;28;19996;-11
2022/11/16 15:06:02;;;;;;;;;;;17.80;96.00;;;;;;5072563;28;20002;-11
2022/11/16 15:08:51;;;;;;;;;;;17.80;96.20;;;;;;5049016;28;19909;-10
2022/11/16 15:11:22;;;;;;;;;;;17.80;96.20;;;;;;5063410;28;19908;-12
2022/11/16 15:13:48;;;;;;;;;;;17.70;96.10;;;;;;5054412;28;19934;-10
2022/11/16 15:16:15;;;;;;;;;;;17.70;96.20;;;;;;5074474;28;19916;-11
2022/11/16 15:19:00;;;;;;;;;;;17.70;96.30;;;;;;5072909;28;19931;-11
2022/11/16 15:21:26;;;;;;;;;;;17.70;96.30;;;;;;5070499;28;19921;-10
2022/11/16 15:23:52;;;;;;;;;;;17.70;96.40;;;;;;5056578;28;20308;-10
2022/11/16 15:26:21;;;;;;;;;;;17.60;96.50;;;;;;5074746;28;20495;-11
2022/11/16 15:28:48;;;;;;;;;;;17.60;96.50;;;;;;5064624;28;20471;-9